Time;durP1;ratioP1;P1;durP2;ratioP2;P2;SDS_P1;SDS_P2;PMS_P1;PMS_P2;Temp;Humidity;BMP_temperature;BMP_pressure;BME280_temperature;BME280_humidity;BME280_pressure;Samples;Min_cycle;Max_cycle;Signal;HPM_P1;HPM_P2
2022/04/14 00:01:03;;;;;;;127.10;46.10;;;;;;;4.77;50.73;99070.52;108013;1277;22571;-75
2022/04/14 00:03:31;;;;;;;102.00;39.00;;;;;;;4.74;50.80;99069.10;108065;1277;22588;-74
2022/04/14 00:05:58;;;;;;;110.40;38.50;;;;;;;4.70;50.54;99066.98;108017;1277;25449;-74
2022/04/14 00:08:25;;;;;;;100.60;39.00;;;;;;;4.67;50.64;99068.80;108027;1278;22575;-74
2022/04/14 00:10:52;;;;;;;96.50;36.10;;;;;;;4.64;51.31;99072.22;108034;1277;22618;-74
2022/04/14 00:13:19;;;;;;;78.60;31.60;;;;;;;4.60;51.19;99071.30;108040;1277;26363;-75
2022/04/14 00:15:46;;;;;;;76.90;32.70;;;;;;;4.57;51.27;99071.73;108049;1277;24448;-74
2022/04/14 00:18:13;;;;;;;84.00;33.30;;;;;;;4.53;51.10;99069.98;108035;1277;22620;-75
2022/04/14 00:20:40;;;;;;;76.00;31.50;;;;;;;4.49;52.05;99069.59;108030;1278;22716;-74
2022/04/14 00:23:08;;;;;;;80.20;33.80;;;;;;;4.46;51.58;99069.38;108011;1277;22591;-74
2022/04/14 00:25:35;;;;;;;83.30;33.90;;;;;;;4.42;51.83;99065.34;107970;1277;22721;-75
2022/04/14 00:28:02;;;;;;;93.30;36.10;;;;;;;4.39;51.60;99067.34;108035;1278;22712;-74
2022/04/14 00:30:29;;;;;;;83.40;34.30;;;;;;;4.36;52.19;99066.41;108055;1277;25479;-75
2022/04/14 00:32:56;;;;;;;75.70;32.60;;;;;;;4.33;52.31;99064.27;107998;1278;22580;-74
2022/04/14 00:35:24;;;;;;;77.70;33.30;;;;;;;4.32;51.62;99066.56;108055;1277;22596;-73
2022/04/14 00:37:51;;;;;;;65.70;29.20;;;;;;;4.28;52.08;99063.60;108219;1277;22563;-75
2022/04/14 00:40:18;;;;;;;66.60;26.50;;;;;;;4.24;52.40;99063.88;108282;1277;25419;-74
2022/04/14 00:42:45;;;;;;;70.60;30.20;;;;;;;4.23;52.68;99066.86;108271;1277;27058;-73
2022/04/14 00:45:14;;;;;;;76.60;32.10;;;;;;;4.19;52.45;99062.84;108281;1277;22574;-74
2022/04/14 00:47:41;;;;;;;51.00;23.70;;;;;;;4.17;52.86;99063.77;108267;1277;22538;-74
2022/04/14 00:50:09;;;;;;;65.80;27.90;;;;;;;4.20;53.51;99066.79;108304;1277;22733;-74
2022/04/14 00:52:43;;;;;;;66.20;26.90;;;;;;;4.22;54.54;99065.67;108294;1277;22563;-74
2022/04/14 00:55:10;;;;;;;65.50;27.90;;;;;;;4.21;55.45;99069.83;108264;1277;22868;-74
2022/04/14 00:57:37;;;;;;;69.00;29.50;;;;;;;4.20;55.57;99070.94;108291;1278;22550;-74
2022/04/14 01:00:06;;;;;;;63.40;27.40;;;;;;;4.17;55.44;99071.70;108321;1279;22544;-75
2022/04/14 01:02:33;;;;;;;57.70;27.40;;;;;;;4.16;55.35;99068.11;108301;1278;22619;-76
2022/04/14 01:05:01;;;;;;;64.00;27.50;;;;;;;4.13;55.54;99068.52;108279;1278;22554;-77
2022/04/14 01:07:29;;;;;;;60.00;26.20;;;;;;;4.11;55.39;99065.84;108268;1278;22849;-76
2022/04/14 01:09:56;;;;;;;57.30;27.00;;;;;;;4.09;55.40;99067.13;108294;1278;22549;-77
2022/04/14 01:12:24;;;;;;;72.00;30.30;;;;;;;4.06;55.16;99068.42;108261;1278;22619;-75
2022/04/14 01:14:51;;;;;;;63.50;28.80;;;;;;;4.03;55.15;99066.13;108047;1277;22558;-74
2022/04/14 01:17:19;;;;;;;52.70;25.30;;;;;;;3.98;55.18;99065.92;108046;1277;22702;-75
2022/04/14 01:19:46;;;;;;;52.10;23.20;;;;;;;3.94;55.43;99060.54;108028;1277;22772;-75
2022/04/14 01:22:25;;;;;;;70.50;31.60;;;;;;;3.90;55.52;99062.58;108040;1278;22726;-76
2022/04/14 01:24:58;;;;;;;83.70;33.00;;;;;;;3.85;55.62;99061.17;108053;1278;22735;-75
2022/04/14 01:27:26;;;;;;;88.90;38.30;;;;;;;3.80;55.58;99060.98;108045;1277;24318;-75
2022/04/14 01:29:53;;;;;;;113.10;43.30;;;;;;;3.75;55.58;99061.29;108130;1278;22660;-73
2022/04/14 01:32:22;;;;;;;127.00;50.40;;;;;;;3.73;55.58;99062.75;108015;1277;22556;-72
2022/04/14 01:34:50;;;;;;;129.70;50.60;;;;;;;3.69;55.72;99062.34;108069;1277;22572;-73
2022/04/14 01:37:18;;;;;;;125.70;49.20;;;;;;;3.67;55.70;99063.60;108030;1277;22789;-74
2022/04/14 01:39:45;;;;;;;108.00;43.00;;;;;;;3.65;55.71;99066.09;108043;1277;22729;-72
2022/04/14 01:42:12;;;;;;;98.70;39.50;;;;;;;3.63;55.53;99066.51;108060;1278;23498;-73
2022/04/14 01:44:39;;;;;;;94.60;37.80;;;;;;;3.61;55.81;99068.80;108036;1277;25296;-73
2022/04/14 01:47:07;;;;;;;80.60;35.80;;;;;;;3.60;55.67;99066.08;108049;1278;22654;-72
2022/04/14 01:49:34;;;;;;;82.00;33.20;;;;;;;3.58;55.82;99063.23;108068;1277;24268;-72
2022/04/14 01:52:01;;;;;;;81.00;32.60;;;;;;;3.56;55.83;99065.88;108023;1277;23241;-72
2022/04/14 01:54:28;;;;;;;76.30;31.50;;;;;;;3.54;55.97;99064.89;108028;1278;22559;-73
2022/04/14 01:56:55;;;;;;;67.30;26.90;;;;;;;3.52;55.90;99063.40;108022;1278;22549;-72
2022/04/14 01:59:22;;;;;;;61.00;27.80;;;;;;;3.55;56.28;99062.96;107830;1278;252533;-72
2022/04/14 02:01:49;;;;;;;60.90;24.50;;;;;;;3.57;57.35;99062.91;108003;1277;22598;-72
2022/04/14 02:04:16;;;;;;;64.30;25.00;;;;;;;3.57;58.20;99061.52;108028;1278;22766;-74
2022/04/14 02:06:44;;;;;;;56.00;24.00;;;;;;;3.54;58.38;99065.05;108026;1278;26585;-73
2022/04/14 02:09:12;;;;;;;68.00;29.90;;;;;;;3.52;58.14;99063.22;108038;1279;22606;-73
2022/04/14 02:11:39;;;;;;;70.00;28.60;;;;;;;3.49;57.89;99058.98;108038;1277;23383;-72
2022/04/14 02:14:06;;;;;;;57.50;26.40;;;;;;;3.47;57.72;99061.66;108026;1278;23436;-73
2022/04/14 02:16:34;;;;;;;64.10;27.00;;;;;;;3.43;57.81;99061.42;108012;1277;22585;-77
2022/04/14 02:19:01;;;;;;;73.90;33.00;;;;;;;3.38;57.63;99058.98;108000;1277;22542;-75
2022/04/14 02:21:28;;;;;;;84.70;35.50;;;;;;;3.35;57.45;99058.38;108036;1277;22566;-75
2022/04/14 02:23:55;;;;;;;68.00;30.70;;;;;;;3.32;57.59;99056.55;108062;1278;22551;-75
2022/04/14 02:26:22;;;;;;;51.90;24.10;;;;;;;3.29;57.68;99055.47;108018;1277;22589;-75
2022/04/14 02:28:49;;;;;;;46.30;22.20;;;;;;;3.26;57.49;99052.63;108019;1277;22775;-75
2022/04/14 02:31:16;;;;;;;44.40;20.90;;;;;;;3.22;57.39;99053.59;108041;1277;22600;-72
2022/04/14 02:33:43;;;;;;;53.90;22.80;;;;;;;3.20;57.57;99051.09;108026;1277;22714;-72
2022/04/14 02:36:10;;;;;;;61.40;26.50;;;;;;;3.16;57.63;99054.63;108033;1277;22629;-73
2022/04/14 02:38:37;;;;;;;60.40;27.70;;;;;;;3.13;57.74;99060.23;108037;1277;25401;-73
2022/04/14 02:41:04;;;;;;;55.90;24.70;;;;;;;3.11;57.51;99057.88;108014;1277;23229;-72
2022/04/14 02:43:31;;;;;;;56.30;26.00;;;;;;;3.10;57.69;99059.79;108013;1277;22559;-72
2022/04/14 02:45:59;;;;;;;63.60;27.30;;;;;;;3.08;57.57;99060.36;108027;1277;24233;-72
2022/04/14 02:48:27;;;;;;;65.60;28.70;;;;;;;3.11;58.05;99060.46;108074;1277;24113;-72
2022/04/14 02:50:54;;;;;;;63.10;29.10;;;;;;;3.13;59.21;99056.27;108061;1277;22628;-73
2022/04/14 02:53:21;;;;;;;75.40;32.40;;;;;;;3.14;60.17;99055.56;108043;1277;22633;-73
2022/04/14 02:55:48;;;;;;;119.80;47.70;;;;;;;3.10;60.12;99057.04;108068;1277;24939;-72
2022/04/14 02:58:15;;;;;;;105.40;44.20;;;;;;;3.08;59.87;99056.23;108046;1277;22643;-75
2022/04/14 03:00:42;;;;;;;100.70;41.20;;;;;;;3.06;59.59;99054.39;108086;1277;23477;-74
2022/04/14 03:03:09;;;;;;;104.10;38.20;;;;;;;3.03;59.43;99052.45;108041;1277;25517;-75
2022/04/14 03:05:36;;;;;;;85.90;39.20;;;;;;;3.00;59.60;99053.89;108029;1277;23125;-74
2022/04/14 03:08:03;;;;;;;124.20;48.00;;;;;;;2.97;59.46;99048.45;108044;1277;22561;-73
2022/04/14 03:10:30;;;;;;;109.10;44.50;;;;;;;2.94;59.57;99046.15;108088;1277;22641;-72
2022/04/14 03:12:57;;;;;;;105.40;43.90;;;;;;;2.90;59.71;99046.94;108058;1277;22552;-73
2022/04/14 03:15:25;;;;;;;117.20;43.50;;;;;;;2.86;59.81;99047.92;108121;1277;25507;-73
2022/04/14 03:17:53;;;;;;;97.10;38.20;;;;;;;2.82;60.11;99045.28;108095;1277;25363;-74
2022/04/14 03:20:20;;;;;;;92.40;34.80;;;;;;;2.80;59.90;99043.42;108051;1277;22572;-73
2022/04/14 03:22:47;;;;;;;117.00;41.70;;;;;;;2.82;60.41;99045.61;108062;1277;22659;-72
2022/04/14 03:25:14;;;;;;;99.40;36.60;;;;;;;2.84;61.11;99040.58;108104;1277;22557;-75
2022/04/14 03:27:42;;;;;;;102.30;40.30;;;;;;;2.83;61.99;99044.55;108070;1277;22555;-73
2022/04/14 03:30:12;;;;;;;110.10;38.80;;;;;;;2.80;61.85;99046.34;108038;1277;22580;-73
2022/04/14 03:32:44;;;;;;;74.60;29.90;;;;;;;2.79;61.43;99046.04;108010;1277;26228;-73
2022/04/14 03:35:12;;;;;;;60.40;27.90;;;;;;;2.77;61.11;99042.14;108055;1277;24967;-73
2022/04/14 03:37:40;;;;;;;66.00;26.60;;;;;;;2.76;60.92;99041.66;108068;1277;22805;-73
2022/04/14 03:40:08;;;;;;;58.80;26.40;;;;;;;2.74;60.82;99040.50;108134;1277;22669;-73
2022/04/14 03:42:38;;;;;;;63.50;25.60;;;;;;;2.72;60.73;99043.84;108059;1277;22723;-73
2022/04/14 03:45:06;;;;;;;58.00;26.00;;;;;;;2.69;60.70;99045.96;108049;1277;22647;-73
2022/04/14 03:47:34;;;;;;;65.90;27.10;;;;;;;2.66;60.62;99046.40;108050;1277;22684;-73
2022/04/14 03:50:02;;;;;;;55.10;24.20;;;;;;;2.64;60.52;99044.20;108058;1277;24236;-73
2022/04/14 03:52:29;;;;;;;49.20;22.00;;;;;;;2.63;60.53;99046.64;108065;1277;22580;-73
2022/04/14 03:54:57;;;;;;;48.00;23.10;;;;;;;2.66;61.11;99045.72;108059;1277;22594;-74
2022/04/14 03:57:25;;;;;;;57.50;24.90;;;;;;;2.68;61.88;99050.65;108060;1277;22664;-73
2022/04/14 03:59:52;;;;;;;53.60;23.10;;;;;;;2.69;62.59;99052.14;108061;1277;22560;-73
2022/04/14 04:02:19;;;;;;;56.00;23.80;;;;;;;2.68;62.69;99055.13;108070;1277;22655;-73
2022/04/14 04:04:46;;;;;;;58.90;26.50;;;;;;;2.66;62.65;99056.71;108037;1277;22554;-73
2022/04/14 04:07:13;;;;;;;54.10;27.00;;;;;;;2.67;62.19;99053.09;108185;1277;23402;-73
2022/04/14 04:09:40;;;;;;;69.20;26.50;;;;;;;2.66;62.04;99053.95;108067;1277;22770;-73
2022/04/14 04:12:08;;;;;;;52.50;26.50;;;;;;;2.65;61.88;99051.75;108099;1277;23442;-74
2022/04/14 04:14:35;;;;;;;49.50;24.70;;;;;;;2.65;61.76;99052.25;108102;1277;22524;-73
2022/04/14 04:17:04;;;;;;;54.60;26.60;;;;;;;2.64;61.91;99049.88;108087;1277;23006;-74
2022/04/14 04:19:32;;;;;;;54.80;28.90;;;;;;;2.65;61.94;99049.86;108064;1277;22595;-74
2022/04/14 04:21:59;;;;;;;93.20;45.00;;;;;;;2.67;61.86;99048.45;108091;1277;25492;-74
2022/04/14 04:24:26;;;;;;;56.10;28.90;;;;;;;2.69;61.87;99049.23;108046;1277;22558;-73
2022/04/14 04:26:53;;;;;;;52.60;25.40;;;;;;;2.77;62.28;99050.05;108094;1277;22548;-73
2022/04/14 04:29:20;;;;;;;56.10;25.50;;;;;;;2.85;62.91;99052.06;108040;1277;22632;-73
2022/04/14 04:31:48;;;;;;;52.60;26.40;;;;;;;2.92;63.62;99052.92;108049;1277;22535;-75
2022/04/14 04:34:15;;;;;;;61.80;29.90;;;;;;;2.96;63.57;99054.34;108049;1277;23606;-79
2022/04/14 04:36:42;;;;;;;90.50;38.50;;;;;;;3.02;63.31;99055.19;108255;1277;22655;-73
2022/04/14 04:39:09;;;;;;;85.90;39.10;;;;;;;3.08;63.33;99058.65;108048;1277;22574;-73
2022/04/14 04:41:37;;;;;;;101.80;44.50;;;;;;;3.13;62.91;99059.38;108084;1277;22714;-76
2022/04/14 04:44:05;;;;;;;97.80;40.40;;;;;;;3.18;62.81;99055.77;108113;1277;22570;-77
2022/04/14 04:46:33;;;;;;;69.50;31.20;;;;;;;3.24;62.44;99057.13;108067;1277;23129;-74
2022/04/14 04:49:00;;;;;;;77.50;34.30;;;;;;;3.31;62.59;99058.52;108391;1277;24501;-73
2022/04/14 04:51:27;;;;;;;216.70;74.00;;;;;;;3.38;62.54;99059.32;108099;1277;25805;-73
2022/04/14 04:53:55;;;;;;;267.90;90.60;;;;;;;3.47;62.42;99057.17;108051;1277;22883;-74
2022/04/14 04:56:22;;;;;;;286.00;92.10;;;;;;;3.56;62.46;99056.73;108058;1277;22643;-73
2022/04/14 04:58:49;;;;;;;116.30;47.00;;;;;;;3.65;62.64;99053.16;108091;1277;22725;-77
2022/04/14 05:01:16;;;;;;;117.00;41.10;;;;;;;3.76;62.36;99051.98;108075;1277;22571;-75
2022/04/14 05:03:43;;;;;;;460.80;134.40;;;;;;;3.88;62.64;99052.11;108091;1277;22622;-76
2022/04/14 05:06:10;;;;;;;483.60;171.20;;;;;;;4.04;62.78;99052.30;108062;1277;23006;-75
2022/04/14 05:08:37;;;;;;;406.10;143.30;;;;;;;4.21;62.44;99055.36;108085;1277;22639;-74
2022/04/14 05:11:04;;;;;;;450.60;173.80;;;;;;;4.39;62.76;99057.52;108087;1277;22724;-74
2022/04/14 05:13:32;;;;;;;371.30;126.30;;;;;;;4.58;62.73;99055.67;108049;1277;26271;-75
2022/04/14 05:15:59;;;;;;;392.60;136.00;;;;;;;4.77;62.81;99053.44;108081;1277;22555;-73
2022/04/14 05:18:26;;;;;;;371.20;129.80;;;;;;;4.98;62.34;99057.38;108080;1277;25516;-74
2022/04/14 05:20:54;;;;;;;284.40;103.30;;;;;;;5.18;61.95;99051.79;108110;1277;24114;-76
2022/04/14 05:23:21;;;;;;;184.20;74.30;;;;;;;5.38;61.71;99051.93;108090;1277;22562;-75
2022/04/14 05:25:48;;;;;;;125.40;51.20;;;;;;;5.58;61.46;99054.63;108057;1277;22571;-74
2022/04/14 05:28:15;;;;;;;100.20;44.30;;;;;;;5.76;60.95;99049.08;108085;1277;22558;-75
2022/04/14 05:30:42;;;;;;;128.30;53.00;;;;;;;5.92;60.64;99048.28;108092;1277;26202;-74
2022/04/14 05:33:10;;;;;;;275.90;103.60;;;;;;;6.05;60.42;99048.29;108092;1277;22588;-74
2022/04/14 05:35:43;;;;;;;244.20;93.40;;;;;;;6.16;60.01;99047.67;108084;1277;22556;-74
2022/04/14 05:38:10;;;;;;;157.80;67.00;;;;;;;6.25;59.72;99045.73;108056;1277;22536;-74
2022/04/14 05:40:45;;;;;;;124.50;53.20;;;;;;;6.36;59.70;99043.39;108053;1277;22574;-75
2022/04/14 05:43:28;;;;;;;163.60;64.30;;;;;;;6.49;59.42;99041.64;108056;1277;22606;-74
2022/04/14 05:45:56;;;;;;;368.50;137.40;;;;;;;6.63;59.02;99036.36;108079;1277;23518;-75
2022/04/14 05:48:23;;;;;;;378.70;139.00;;;;;;;6.75;58.92;99036.02;108106;1277;22694;-75
2022/04/14 05:50:50;;;;;;;287.00;110.60;;;;;;;6.90;58.65;99035.02;108056;1277;22671;-74
2022/04/14 05:53:20;;;;;;;162.60;68.40;;;;;;;7.04;58.40;99037.33;108092;1277;23340;-74
2022/04/14 05:55:47;;;;;;;120.00;50.80;;;;;;;7.21;57.85;99036.77;108084;1278;22672;-73
2022/04/14 05:58:16;;;;;;;118.40;50.10;;;;;;;7.40;57.89;99036.76;108092;1277;26040;-75
2022/04/14 06:00:44;;;;;;;117.50;50.50;;;;;;;7.59;57.29;99034.32;108097;1277;22589;-76
2022/04/14 06:03:11;;;;;;;111.10;51.50;;;;;;;7.80;56.98;99031.39;108058;1277;22550;-74
2022/04/14 06:05:38;;;;;;;87.00;40.90;;;;;;;8.02;56.55;99031.05;108115;1277;22660;-75
2022/04/14 06:08:06;;;;;;;59.00;27.20;;;;;;;8.24;55.82;99035.50;108087;1277;22597;-74
2022/04/14 06:10:35;;;;;;;54.60;24.60;;;;;;;8.45;55.22;99032.91;108089;1277;25379;-75
2022/04/14 06:13:03;;;;;;;56.60;27.20;;;;;;;8.67;55.01;99031.48;108076;1277;22548;-76
2022/04/14 06:15:31;;;;;;;57.40;24.20;;;;;;;8.86;54.35;99030.63;108077;1277;24263;-76
2022/04/14 06:17:59;;;;;;;54.90;32.10;;;;;;;9.06;53.57;99031.70;108061;1277;23531;-76
2022/04/14 06:20:26;;;;;;;56.60;32.20;;;;;;;9.25;53.46;99036.41;108226;1277;25323;-78
2022/04/14 06:22:55;;;;;;;48.50;27.80;;;;;;;9.42;52.57;99034.07;108070;1277;24391;-77
2022/04/14 06:25:22;;;;;;;40.00;21.00;;;;;;;9.62;52.27;99031.07;108027;1277;22562;-76
2022/04/14 06:27:51;;;;;;;42.70;23.10;;;;;;;9.80;52.84;99031.48;108043;1277;22581;-75
2022/04/14 06:30:19;;;;;;;36.00;21.10;;;;;;;9.96;52.39;99030.06;108061;1277;22748;-74
2022/04/14 06:33:02;;;;;;;34.60;18.50;;;;;;;10.12;51.58;99030.02;108079;1277;22711;-74
2022/04/14 06:35:30;;;;;;;36.50;18.80;;;;;;;10.29;51.86;99032.89;108204;1277;22656;-76
2022/04/14 06:37:57;;;;;;;29.80;17.20;;;;;;;10.44;51.15;99027.34;108298;1277;24296;-76
2022/04/14 06:40:24;;;;;;;33.30;17.60;;;;;;;10.61;50.71;99029.48;108297;1277;22552;-74
2022/04/14 06:42:51;;;;;;;33.00;16.90;;;;;;;10.79;51.04;99030.64;108332;1277;22577;-77
2022/04/14 06:45:19;;;;;;;30.20;17.60;;;;;;;10.95;50.81;99030.75;108308;1277;22543;-75
2022/04/14 06:47:46;;;;;;;30.10;17.00;;;;;;;11.10;50.66;99031.20;108293;1277;22573;-77
2022/04/14 06:50:13;;;;;;;34.60;17.00;;;;;;;11.26;50.29;99031.08;108344;1277;23180;-75
2022/04/14 06:52:40;;;;;;;26.90;14.90;;;;;;;11.42;49.86;99029.09;108400;1277;23968;-77
2022/04/14 06:55:09;;;;;;;29.80;16.30;;;;;;;11.56;48.99;99030.75;108300;1277;22554;-76
2022/04/14 06:57:36;;;;;;;30.80;17.00;;;;;;;11.67;48.82;99028.53;108302;1277;25392;-77
2022/04/14 07:00:05;;;;;;;32.90;16.80;;;;;;;11.80;48.85;99025.82;108330;1277;22602;-77
2022/04/14 07:02:32;;;;;;;28.20;16.10;;;;;;;11.96;48.24;99031.38;108305;1277;22924;-77
2022/04/14 07:04:59;;;;;;;34.00;17.40;;;;;;;12.13;48.03;99030.27;108306;1277;22559;-79
2022/04/14 07:07:26;;;;;;;28.20;14.90;;;;;;;12.29;47.57;99030.42;108358;1277;25474;-78
2022/04/14 07:09:53;;;;;;;25.90;14.40;;;;;;;12.44;47.78;99027.36;108319;1277;22606;-79
2022/04/14 07:12:20;;;;;;;26.00;15.30;;;;;;;12.61;46.89;99028.29;108350;1277;22557;-77
2022/04/14 07:14:47;;;;;;;26.10;14.90;;;;;;;12.81;46.85;99030.83;108339;1277;22568;-77
2022/04/14 07:17:16;;;;;;;25.30;15.30;;;;;;;12.95;46.98;99032.63;108273;1277;22552;-76
2022/04/14 07:19:44;;;;;;;33.10;17.00;;;;;;;13.03;46.13;99028.03;108300;1277;22547;-76
2022/04/14 07:22:15;;;;;;;30.30;16.40;;;;;;;13.13;46.36;99031.05;108312;1275;22583;-77
2022/04/14 07:24:42;;;;;;;24.90;15.20;;;;;;;13.21;46.64;99033.66;108271;1278;22549;-77
2022/04/14 07:27:10;;;;;;;27.30;15.10;;;;;;;13.31;46.09;99035.41;108306;1277;22542;-78
2022/04/14 07:29:37;;;;;;;27.90;14.40;;;;;;;13.40;46.00;99032.13;108332;1277;22633;-75
2022/04/14 07:32:05;;;;;;;24.20;13.60;;;;;;;13.49;45.95;99029.41;108249;1277;24110;-76
2022/04/14 07:34:32;;;;;;;22.00;13.20;;;;;;;13.59;45.25;99029.20;108128;1277;22620;-77
2022/04/14 07:36:59;;;;;;;22.70;14.90;;;;;;;13.72;45.34;99027.24;108166;1277;22549;-76
2022/04/14 07:39:26;;;;;;;23.70;14.20;;;;;;;13.79;44.55;99026.21;108201;1277;25391;-76
2022/04/14 07:41:53;;;;;;;31.60;14.20;;;;;;;13.87;45.13;99025.27;108217;1277;24441;-75
2022/04/14 07:44:21;;;;;;;24.40;14.40;;;;;;;13.98;45.19;99027.81;108226;1277;22623;-76
2022/04/14 07:46:48;;;;;;;24.20;14.00;;;;;;;14.06;45.02;99026.90;108282;1277;22615;-76
2022/04/14 07:49:16;;;;;;;21.20;13.10;;;;;;;14.11;43.58;99030.00;108241;1277;22563;-77
2022/04/14 07:52:00;;;;;;;25.20;15.00;;;;;;;14.21;43.90;99028.20;108285;1277;22643;-77
2022/04/14 07:54:44;;;;;;;25.40;14.40;;;;;;;14.25;43.53;99032.45;108313;1277;22560;-75
2022/04/14 07:57:29;;;;;;;26.60;13.70;;;;;;;14.35;42.49;99037.17;108276;1277;22567;-76
2022/04/14 08:00:14;;;;;;;25.20;12.60;;;;;;;14.44;42.79;99033.00;108296;1277;22626;-75
2022/04/14 08:03:00;;;;;;;26.00;14.20;;;;;;;14.59;42.38;99031.01;108293;1277;25455;-75
2022/04/14 08:05:46;;;;;;;20.00;13.60;;;;;;;14.71;42.54;99033.45;108306;1277;22622;-76
2022/04/14 08:08:31;;;;;;;20.30;12.90;;;;;;;14.78;42.59;99028.83;108293;1277;22560;-76
2022/04/14 08:11:15;;;;;;;20.00;12.30;;;;;;;14.87;41.81;99028.02;108273;1277;22560;-76
2022/04/14 08:13:59;;;;;;;20.00;12.00;;;;;;;14.99;41.82;99032.88;108316;1277;23172;-76
2022/04/14 08:16:44;;;;;;;18.50;10.70;;;;;;;15.12;41.76;99027.61;108286;1277;22558;-75
2022/04/14 08:19:28;;;;;;;17.30;11.10;;;;;;;15.25;41.62;99029.05;108318;1277;22553;-76
2022/04/14 08:22:12;;;;;;;17.80;11.90;;;;;;;15.37;41.17;99026.20;108299;1277;22628;-76
2022/04/14 08:24:56;;;;;;;20.20;11.90;;;;;;;15.44;40.60;99030.04;108317;1277;22572;-77
2022/04/14 08:27:40;;;;;;;19.30;11.70;;;;;;;15.52;40.58;99029.95;108304;1277;22675;-76
2022/04/14 08:30:28;;;;;;;18.30;11.20;;;;;;;15.61;40.18;99024.50;108312;1277;22589;-76
2022/04/14 08:32:56;;;;;;;20.90;11.60;;;;;;;15.69;40.10;99022.81;108287;1277;22695;-77
2022/04/14 08:35:26;;;;;;;18.00;11.80;;;;;;;15.72;40.29;99020.46;108287;1277;22546;-76
2022/04/14 08:37:53;;;;;;;17.90;11.30;;;;;;;15.80;40.14;99021.40;108301;1277;22583;-79
2022/04/14 08:40:22;;;;;;;19.90;10.90;;;;;;;15.88;40.02;99023.69;108289;1277;22548;-76
2022/04/14 08:42:57;;;;;;;21.40;11.40;;;;;;;15.98;39.80;99020.27;108345;1277;22684;-79
2022/04/14 08:45:27;;;;;;;17.20;10.70;;;;;;;16.04;39.29;99022.72;108301;1277;22737;-79
2022/04/14 08:47:56;;;;;;;21.30;11.60;;;;;;;16.13;39.17;99018.88;108308;1277;22554;-78
2022/04/14 08:50:24;;;;;;;20.30;12.00;;;;;;;16.24;38.73;99023.23;108287;1277;22557;-76
2022/04/14 08:52:52;;;;;;;18.40;11.70;;;;;;;16.34;38.40;99021.49;108323;1277;22680;-78
2022/04/14 08:55:19;;;;;;;18.10;11.30;;;;;;;16.40;38.53;99018.15;108310;1277;22585;-77
2022/04/14 08:57:47;;;;;;;19.80;11.80;;;;;;;16.50;38.29;99014.03;108264;1277;22557;-76
2022/04/14 09:00:17;;;;;;;18.00;10.70;;;;;;;16.55;38.17;99011.55;108149;1277;24254;-77
2022/04/14 09:02:46;;;;;;;16.20;10.60;;;;;;;16.61;37.77;99009.80;108243;1277;22844;-76
2022/04/14 09:05:19;;;;;;;15.70;9.90;;;;;;;16.70;37.92;99007.30;108292;1277;22563;-78
2022/04/14 09:07:49;;;;;;;19.30;11.00;;;;;;;16.72;36.75;99006.76;108263;1277;22559;-77
2022/04/14 09:10:20;;;;;;;19.30;11.20;;;;;;;16.78;37.16;99005.35;108299;1277;22632;-76
2022/04/14 09:12:49;;;;;;;18.70;10.00;;;;;;;16.84;37.41;98998.66;108269;1277;22553;-76
2022/04/14 09:15:17;;;;;;;19.90;11.00;;;;;;;16.93;37.31;99000.59;108262;1277;25402;-75
2022/04/14 09:17:44;;;;;;;18.00;11.00;;;;;;;17.02;37.38;99001.59;108283;1277;22702;-77
2022/04/14 09:20:38;;;;;;;16.10;9.30;;;;;;;17.08;37.12;98997.73;108295;1277;23930;-75
2022/04/14 09:23:20;;;;;;;15.80;9.20;;;;;;;17.12;36.64;98995.58;108270;1277;22550;-76
2022/04/14 09:25:50;;;;;;;15.90;9.40;;;;;;;17.13;36.45;98991.07;108275;1277;25398;-78
2022/04/14 09:28:19;;;;;;;20.80;10.00;;;;;;;17.20;35.81;98989.11;108288;1277;22552;-76
2022/04/14 09:31:06;;;;;;;14.80;9.20;;;;;;;17.27;36.40;98989.16;108313;1277;22551;-76
2022/04/14 09:33:45;;;;;;;16.20;9.10;;;;;;;17.36;36.43;98985.39;108321;1277;22550;-76
2022/04/14 09:36:17;;;;;;;13.10;9.10;;;;;;;17.47;36.36;98979.15;108294;1277;22617;-75
2022/04/14 09:38:53;;;;;;;18.50;10.60;;;;;;;17.58;35.96;98978.31;108152;1278;25271;-76
2022/04/14 09:41:30;;;;;;;15.90;9.90;;;;;;;17.65;35.46;98975.11;108129;1277;25364;-75
2022/04/14 09:44:03;;;;;;;18.20;10.30;;;;;;;17.69;35.32;98975.61;108035;1276;22552;-74
2022/04/14 09:46:30;;;;;;;18.20;10.40;;;;;;;17.79;36.03;98972.98;108034;1277;22696;-74
2022/04/14 09:49:03;;;;;;;15.40;8.70;;;;;;;17.84;35.97;98974.42;108029;1277;22829;-72
2022/04/14 09:51:32;;;;;;;15.90;8.90;;;;;;;17.90;35.57;98971.07;108043;1277;22577;-76
2022/04/14 09:54:15;;;;;;;15.80;8.70;;;;;;;17.96;35.62;98968.77;108010;1278;25430;-76
2022/04/14 09:56:51;;;;;;;13.90;8.50;;;;;;;18.03;35.61;98963.95;108040;1277;25432;-74
2022/04/14 09:59:28;;;;;;;13.90;8.80;;;;;;;18.07;34.72;98962.15;108032;1277;24903;-77
2022/04/14 10:02:13;;;;;;;16.40;9.50;;;;;;;18.17;35.25;98956.28;108081;1277;22542;-76
2022/04/14 10:04:42;;;;;;;16.10;8.90;;;;;;;18.25;34.56;98953.14;108110;1277;23159;-76
2022/04/14 10:07:09;;;;;;;12.40;8.30;;;;;;;18.31;34.60;98953.60;108044;1277;22577;-76
2022/04/14 10:09:42;;;;;;;13.70;8.10;;;;;;;18.40;34.27;98948.38;108042;1277;22677;-76
2022/04/14 10:12:18;;;;;;;16.50;8.30;;;;;;;18.46;33.93;98946.91;108026;1277;22726;-75
2022/04/14 10:15:01;;;;;;;13.80;8.50;;;;;;;18.55;33.88;98940.42;108030;1277;23460;-75
2022/04/14 10:17:30;;;;;;;12.80;8.00;;;;;;;18.69;34.31;98937.67;108038;1278;24121;-75
2022/04/14 10:19:59;;;;;;;13.90;7.60;;;;;;;18.75;33.62;98934.75;108028;1277;22727;-76
2022/04/14 10:22:27;;;;;;;11.70;7.40;;;;;;;18.77;33.12;98934.89;108064;1277;22773;-77
2022/04/14 10:24:56;;;;;;;13.20;8.00;;;;;;;18.80;32.89;98927.53;108046;1277;22571;-76
2022/04/14 10:27:25;;;;;;;15.40;8.40;;;;;;;18.88;33.41;98924.15;107980;1277;22609;-76
2022/04/14 10:29:53;;;;;;;12.80;8.10;;;;;;;18.92;32.77;98923.05;108001;1277;25412;-76
2022/04/14 10:32:21;;;;;;;16.10;7.80;;;;;;;18.91;32.61;98922.10;108043;1278;22593;-73
2022/04/14 10:34:49;;;;;;;17.60;8.10;;;;;;;18.96;32.39;98918.27;108033;1277;22632;-77
2022/04/14 10:37:23;;;;;;;12.90;7.70;;;;;;;18.99;32.64;98916.48;108038;1277;22577;-75
2022/04/14 10:39:50;;;;;;;12.30;7.20;;;;;;;19.03;32.59;98917.23;108021;1277;22626;-76
2022/04/14 10:42:24;;;;;;;14.10;7.80;;;;;;;19.04;32.90;98913.39;108028;1277;26024;-76
2022/04/14 10:44:53;;;;;;;13.90;8.10;;;;;;;19.10;32.16;98915.27;108268;1276;22620;-76
2022/04/14 10:47:35;;;;;;;14.80;7.70;;;;;;;19.17;31.97;98915.33;108024;1277;26739;-73
2022/04/14 10:50:03;;;;;;;17.60;7.30;;;;;;;19.28;32.29;98916.91;108026;1277;22670;-73
2022/04/14 10:52:30;;;;;;;16.10;7.60;;;;;;;19.33;31.53;98913.26;108016;1277;22641;-74
2022/04/14 10:54:59;;;;;;;11.20;7.20;;;;;;;19.37;31.49;98909.00;107989;1277;22620;-73
2022/04/14 10:57:40;;;;;;;11.20;7.70;;;;;;;19.41;31.55;98905.20;107987;1277;22874;-74
2022/04/14 11:00:19;;;;;;;11.80;7.20;;;;;;;19.47;31.70;98906.40;108058;1277;22786;-73
2022/04/14 11:03:11;;;;;;;13.60;7.60;;;;;;;19.53;31.49;98909.27;108068;1277;22641;-73
2022/04/14 11:05:46;;;;;;;13.80;6.70;;;;;;;19.57;31.39;98905.63;108058;1277;22606;-73
2022/04/14 11:08:31;;;;;;;12.60;6.90;;;;;;;19.60;30.83;98899.84;108033;1277;22814;-74
2022/04/14 11:11:01;;;;;;;11.70;7.20;;;;;;;19.67;30.82;98898.63;108032;1277;22542;-73
2022/04/14 11:13:50;;;;;;;13.40;7.10;;;;;;;19.66;30.55;98889.91;108044;1277;22868;-73
2022/04/14 11:16:47;;;;;;;16.40;10.30;;;;;;;19.68;30.43;98892.05;108012;1277;23560;-76
2022/04/14 11:19:17;;;;;;;12.80;8.20;;;;;;;19.81;31.05;98888.92;108037;1277;22706;-73
2022/04/14 11:22:04;;;;;;;14.10;7.80;;;;;;;19.93;30.52;98892.23;108037;1277;22561;-72
2022/04/14 11:24:40;;;;;;;10.70;7.20;;;;;;;19.97;30.47;98884.84;108022;1277;23184;-74
2022/04/14 11:27:13;;;;;;;29.50;22.10;;;;;;;20.02;30.38;98880.55;108014;1277;22562;-73